createdAt,value
2018-12-27T00:01:33.809Z,99725.47
2018-12-27T00:04:05.157Z,99733.95
2018-12-27T00:06:36.548Z,99733.95
2018-12-27T00:09:09.079Z,99744.09
2018-12-27T00:11:40.417Z,99757.61
2018-12-27T00:14:12.791Z,99757.61
2018-12-27T00:16:44.366Z,99762.33
2018-12-27T00:19:15.973Z,99775.54
2018-12-27T00:21:47.954Z,99775.54
2018-12-27T00:24:19.312Z,99780.59
2018-12-27T00:26:50.952Z,99787.02
2018-12-27T00:29:23.367Z,99780.34
2018-12-27T00:31:54.820Z,99780.34
2018-12-27T00:34:26.048Z,99790.20
2018-12-27T00:36:57.302Z,99791.61
2018-12-27T00:39:28.430Z,99798.44
2018-12-27T00:42:00.600Z,99805.39
2018-12-27T00:44:32.382Z,99804.27
2018-12-27T00:47:04.052Z,99814.48
2018-12-27T00:49:35.961Z,99824.17
2018-12-27T00:52:07.184Z,99823.75
2018-12-27T00:54:38.461Z,99823.75
2018-12-27T00:57:09.670Z,99847.05
2018-12-27T00:59:40.985Z,99847.05
2018-12-27T01:02:13.451Z,99844.57
2018-12-27T01:04:44.759Z,99848.09
2018-12-27T01:07:16.500Z,99847.93
2018-12-27T01:09:47.885Z,99852.98
2018-12-27T01:12:19.264Z,99856.72
2018-12-27T01:14:51.173Z,99863.61
2018-12-27T01:17:22.321Z,99867.97
2018-12-27T01:19:53.671Z,99867.97
2018-12-27T01:22:25.294Z,99886.81
2018-12-27T01:24:56.974Z,99874.82
2018-12-27T01:27:28.388Z,99868.71
2018-12-27T01:29:59.845Z,99872.22
2018-12-27T01:32:31.485Z,99872.22
2018-12-27T01:35:03.161Z,99877.45
2018-12-27T01:37:34.836Z,99884.98
2018-12-27T01:40:06.236Z,99885.92
2018-12-27T01:42:37.518Z,99885.92
2018-12-27T01:45:09.370Z,99893.07
2018-12-27T01:47:40.790Z,99887.45
2018-12-27T01:50:12.332Z,99892.25
2018-12-27T01:52:43.949Z,99890.02
2018-12-27T01:55:15.688Z,99890.22
2018-12-27T01:57:47.345Z,99897.23
2018-12-27T02:00:19.066Z,99903.84
2018-12-27T02:02:50.332Z,99903.84
2018-12-27T02:05:22.022Z,99898.69
2018-12-27T02:07:53.927Z,99898.69
2018-12-27T02:10:25.185Z,99899.84
2018-12-27T02:12:56.649Z,99899.84
2018-12-27T02:15:28.517Z,99913.64
2018-12-27T02:17:59.707Z,99912.75
2018-12-27T02:20:31.425Z,99918.68
2018-12-27T02:23:02.607Z,99927.29
2018-12-27T02:25:34.051Z,99932.02
2018-12-27T02:28:05.269Z,99928.00
2018-12-27T02:30:36.601Z,99932.27
2018-12-27T02:33:08.580Z,99932.27
2018-12-27T02:35:40.452Z,99939.11
2018-12-27T02:38:12.462Z,99942.92
2018-12-27T02:40:43.805Z,99953.74
2018-12-27T02:43:15.346Z,99953.74
2018-12-27T02:45:46.957Z,99954.54
2018-12-27T02:48:18.292Z,99954.54
2018-12-27T02:50:49.840Z,99968.78
2018-12-27T02:53:21.366Z,99974.69
2018-12-27T02:55:52.940Z,99974.69
2018-12-27T02:58:24.067Z,99977.75
2018-12-27T03:00:55.149Z,99977.75
2018-12-27T03:03:26.458Z,99979.46
2018-12-27T03:05:57.950Z,99980.20
2018-12-27T03:08:29.280Z,99985.91
2018-12-27T03:11:00.520Z,99992.85
2018-12-27T03:13:31.781Z,99993.98
2018-12-27T03:16:03.385Z,99993.98
2018-12-27T03:18:34.747Z,100004.27
2018-12-27T03:21:06.060Z,100004.27
2018-12-27T03:23:37.418Z,100000.77
2018-12-27T03:26:08.575Z,100000.77
2018-12-27T03:28:39.844Z,100011.56
2018-12-27T03:31:11.102Z,100013.00
2018-12-27T03:33:42.675Z,100016.48
2018-12-27T03:36:14.248Z,100011.32
2018-12-27T03:38:46.267Z,100011.32
2018-12-27T03:41:17.719Z,100023.56
2018-12-27T03:43:49.351Z,100028.34
2018-12-27T03:46:21.325Z,100028.34
2018-12-27T03:48:53.092Z,100028.81
2018-12-27T03:51:24.419Z,100028.81
2018-12-27T03:53:55.656Z,100031.45
2018-12-27T03:56:27.325Z,100031.45
2018-12-27T03:58:58.702Z,100024.89
2018-12-27T04:01:29.917Z,100031.47
2018-12-27T04:04:01.799Z,100034.09
2018-12-27T04:06:33.223Z,100034.09
2018-12-27T04:09:05.455Z,100027.47
2018-12-27T04:11:36.728Z,100026.14
2018-12-27T04:14:08.097Z,100030.17
2018-12-27T04:16:40.039Z,100026.53
2018-12-27T04:19:11.590Z,100033.75
2018-12-27T04:21:42.958Z,100033.75
2018-12-27T04:24:15.101Z,100032.35
2018-12-27T04:26:46.371Z,100029.22
2018-12-27T04:29:18.224Z,100020.03
2018-12-27T04:31:50.797Z,100020.03
2018-12-27T04:34:22.656Z,100021.14
2018-12-27T04:36:56.194Z,100021.14
2018-12-27T04:39:28.416Z,100018.63
2018-12-27T04:42:00.400Z,100018.63
2018-12-27T04:44:32.294Z,100016.07
2018-12-27T04:47:04.778Z,100015.14
2018-12-27T04:49:36.418Z,100014.20
2018-12-27T04:52:08.110Z,100015.94
2018-12-27T04:54:39.672Z,100015.94
2018-12-27T04:57:11.000Z,100010.23
2018-12-27T04:59:42.643Z,99999.20
2018-12-27T05:02:13.949Z,99996.64
2018-12-27T05:04:45.237Z,99989.77
2018-12-27T05:07:16.551Z,99989.77
2018-12-27T05:09:47.566Z,99976.09
2018-12-27T05:12:18.768Z,99977.57
2018-12-27T05:14:49.980Z,99981.06
2018-12-27T05:17:21.873Z,99970.77
2018-12-27T05:19:53.072Z,99959.75
2018-12-27T05:22:24.261Z,99959.75
2018-12-27T05:24:55.553Z,99958.28
2018-12-27T05:27:26.583Z,99960.45
2018-12-27T05:29:57.704Z,99943.18
2018-12-27T05:32:28.863Z,99943.18
2018-12-27T05:34:59.903Z,99940.11
2018-12-27T05:37:31.529Z,99931.70
2018-12-27T05:40:02.755Z,99931.70
2018-12-27T05:42:34.590Z,99921.72
2018-12-27T05:45:06.261Z,99921.72
2018-12-27T05:47:38.082Z,99914.63
2018-12-27T05:50:09.659Z,99917.88
2018-12-27T05:52:43.077Z,99917.88
2018-12-27T05:55:15.222Z,99906.35
2018-12-27T05:57:47.141Z,99910.19
2018-12-27T06:00:18.705Z,99906.16
2018-12-27T06:02:50.117Z,99906.16
2018-12-27T06:05:21.578Z,99901.37
2018-12-27T06:07:52.946Z,99901.57
2018-12-27T06:10:24.387Z,99892.23
2018-12-27T06:12:55.632Z,99892.23
2018-12-27T06:15:26.887Z,99882.54
2018-12-27T06:17:58.527Z,99882.54
2018-12-27T06:20:29.621Z,99879.45
2018-12-27T06:23:01.162Z,99879.86
2018-12-27T06:25:32.270Z,99874.19
2018-12-27T06:28:03.933Z,99871.78
2018-12-27T06:30:35.576Z,99873.34
2018-12-27T06:33:07.236Z,99864.73
2018-12-27T06:35:38.562Z,99864.73
2018-12-27T06:38:10.119Z,99856.37
2018-12-27T06:40:41.654Z,99856.37
2018-12-27T06:43:13.261Z,99855.21
2018-12-27T06:45:44.883Z,99846.93
2018-12-27T06:48:16.830Z,99831.73
2018-12-27T06:50:48.505Z,99827.38
2018-12-27T06:53:20.246Z,99812.70
2018-12-27T06:55:54.939Z,99812.70
2018-12-27T06:58:29.373Z,99812.86
2018-12-27T07:01:02.685Z,99803.86
2018-12-27T07:03:36.304Z,99788.86
2018-12-27T07:06:09.946Z,99776.88
2018-12-27T07:08:45.222Z,99771.76
2018-12-27T07:11:17.501Z,99763.75
2018-12-27T07:13:52.009Z,99760.20
2018-12-27T07:16:23.893Z,99767.41
2018-12-27T07:18:55.692Z,99767.41
2018-12-27T07:21:27.404Z,99764.70
2018-12-27T07:23:58.682Z,99753.38
2018-12-27T07:26:33.957Z,99736.02
2018-12-27T07:29:05.653Z,99744.20
2018-12-27T07:31:37.016Z,99744.20
2018-12-27T07:34:08.278Z,99745.47
2018-12-27T07:36:47.162Z,99722.94
2018-12-27T07:39:18.390Z,99737.65
2018-12-27T07:41:49.930Z,99729.38
2018-12-27T07:44:21.120Z,99725.97
2018-12-27T07:46:52.365Z,99724.88
2018-12-27T07:49:24.049Z,99724.88
2018-12-27T07:51:55.349Z,99712.59
2018-12-27T07:54:29.026Z,99712.59
2018-12-27T07:57:04.499Z,99716.02
2018-12-27T07:59:35.753Z,99709.23
2018-12-27T08:02:07.410Z,99716.08
2018-12-27T08:04:38.785Z,99705.52
2018-12-27T08:07:09.876Z,99705.52
2018-12-27T08:09:41.631Z,99710.20
2018-12-27T08:12:14.649Z,99710.67
2018-12-27T08:14:45.915Z,99710.67
2018-12-27T08:17:17.334Z,99701.52
2018-12-27T08:19:49.069Z,99700.72
2018-12-27T08:22:20.215Z,99700.72
2018-12-27T08:24:51.465Z,99696.47
2018-12-27T08:27:22.744Z,99696.47
2018-12-27T08:29:54.213Z,99697.11
2018-12-27T08:32:25.624Z,99693.05
2018-12-27T08:34:57.921Z,99682.22
2018-12-27T08:37:33.522Z,99684.47
2018-12-27T08:40:06.629Z,99684.47
2018-12-27T08:42:38.187Z,99673.33
2018-12-27T08:45:09.695Z,99673.33
2018-12-27T08:47:41.431Z,99678.09
2018-12-27T08:50:13.498Z,99670.48
2018-12-27T08:52:44.921Z,99675.81
2018-12-27T08:55:16.440Z,99674.05
2018-12-27T08:57:55.885Z,99668.85
2018-12-27T09:00:28.013Z,99668.85
2018-12-27T09:02:59.374Z,99662.39
2018-12-27T09:05:30.925Z,99661.14
2018-12-27T09:08:02.263Z,99657.92
2018-12-27T09:10:33.735Z,99657.92
2018-12-27T09:13:05.158Z,99656.00
2018-12-27T09:15:36.922Z,99654.12
2018-12-27T09:18:08.588Z,99654.12
2018-12-27T09:20:41.797Z,99648.57
2018-12-27T09:23:13.423Z,99648.57
2018-12-27T09:25:45.641Z,99644.83
2018-12-27T09:28:17.363Z,99644.83
2018-12-27T09:30:48.824Z,99643.41
2018-12-27T09:33:20.429Z,99641.71
2018-12-27T09:35:56.950Z,99637.45
2018-12-27T09:38:28.974Z,99637.45
2018-12-27T09:41:00.320Z,99646.56
2018-12-27T09:43:31.776Z,99646.56
2018-12-27T09:46:08.176Z,99644.98
2018-12-27T09:48:39.738Z,99644.98
2018-12-27T09:51:11.563Z,99643.73
2018-12-27T09:53:43.459Z,99646.40
2018-12-27T09:56:14.894Z,99648.89
2018-12-27T09:58:46.578Z,99647.87
2018-12-27T10:01:18.155Z,99652.16
2018-12-27T10:03:49.420Z,99648.16
2018-12-27T10:06:20.810Z,99646.40
2018-12-27T10:08:52.375Z,99651.23
2018-12-27T10:11:23.985Z,99651.50
2018-12-27T10:13:55.427Z,99655.88
2018-12-27T10:16:26.913Z,99655.88
2018-12-27T10:18:58.806Z,99654.95
2018-12-27T10:21:33.678Z,99654.95
2018-12-27T10:24:06.449Z,99664.53
2018-12-27T10:26:37.936Z,99665.78
2018-12-27T10:29:09.437Z,99656.00
2018-12-27T10:31:40.835Z,99661.12
2018-12-27T10:34:12.658Z,99663.97
2018-12-27T10:36:44.484Z,99663.97
2018-12-27T10:39:15.989Z,99656.66
2018-12-27T10:41:47.333Z,99661.87
2018-12-27T10:44:18.741Z,99655.23
2018-12-27T10:46:49.815Z,99655.23
2018-12-27T10:49:21.425Z,99656.00
2018-12-27T10:51:53.101Z,99659.91
2018-12-27T10:54:24.580Z,99657.95
2018-12-27T10:56:55.813Z,99661.98
2018-12-27T10:59:27.371Z,99658.46
2018-12-27T11:01:58.722Z,99655.09
2018-12-27T11:04:30.295Z,99655.09
2018-12-27T11:07:01.597Z,99652.14
2018-12-27T11:09:33.296Z,99652.54
2018-12-27T11:12:04.703Z,99652.54
2018-12-27T11:14:36.400Z,99651.94
2018-12-27T11:17:07.920Z,99657.56
2018-12-27T11:19:41.891Z,99656.77
2018-12-27T11:22:13.877Z,99658.46
2018-12-27T11:24:45.323Z,99656.70
2018-12-27T11:27:16.797Z,99656.70
2018-12-27T11:29:48.444Z,99656.00
2018-12-27T11:32:20.307Z,99656.00
2018-12-27T11:34:51.517Z,99662.83
2018-12-27T11:37:23.218Z,99657.91
2018-12-27T11:39:54.650Z,99657.91
2018-12-27T11:42:25.882Z,99658.41
2018-12-27T11:44:57.330Z,99658.08
2018-12-27T11:47:28.597Z,99658.14
2018-12-27T11:50:00.010Z,99658.14
2018-12-27T11:52:31.930Z,99663.34
2018-12-27T11:55:03.476Z,99663.34
2018-12-27T11:57:34.797Z,99658.21
2018-12-27T12:00:06.756Z,99667.88
2018-12-27T12:02:38.050Z,99664.02
2018-12-27T12:05:09.520Z,99664.02
2018-12-27T12:07:40.806Z,99672.55
2018-12-27T12:10:12.469Z,99674.80
2018-12-27T12:12:44.149Z,99671.05
2018-12-27T12:15:15.751Z,99679.86
2018-12-27T12:17:47.242Z,99684.54
2018-12-27T12:20:19.009Z,99684.54
2018-12-27T12:22:50.744Z,99692.36
2018-12-27T12:25:22.085Z,99684.59
2018-12-27T12:27:53.712Z,99688.59
2018-12-27T12:30:25.148Z,99688.50
2018-12-27T12:32:56.667Z,99682.97
2018-12-27T12:35:28.295Z,99686.48
2018-12-27T12:38:00.612Z,99686.48
2018-12-27T12:40:31.971Z,99690.91
2018-12-27T12:43:03.197Z,99691.70
2018-12-27T12:45:34.594Z,99696.02
2018-12-27T12:48:06.063Z,99698.63
2018-12-27T12:50:37.417Z,99698.63
2018-12-27T12:53:10.524Z,99703.78
2018-12-27T12:55:41.829Z,99698.48
2018-12-27T12:58:13.563Z,99695.72
2018-12-27T13:00:44.905Z,99701.84
2018-12-27T13:03:16.341Z,99703.94
2018-12-27T13:05:47.612Z,99703.94
2018-12-27T13:08:19.316Z,99708.75
2018-12-27T13:10:50.656Z,99717.88
2018-12-27T13:13:21.934Z,99711.36
2018-12-27T13:15:53.171Z,99712.66
2018-12-27T13:18:24.470Z,99712.66
2018-12-27T13:20:55.860Z,99714.37
2018-12-27T13:23:27.395Z,99720.48
2018-12-27T13:25:58.956Z,99727.80
2018-12-27T13:28:30.222Z,99734.77
2018-12-27T13:31:02.058Z,99734.77
2018-12-27T13:33:33.630Z,99725.30
2018-12-27T13:36:05.155Z,99728.16
2018-12-27T13:38:36.668Z,99724.45
2018-12-27T13:41:08.378Z,99721.73
2018-12-27T13:43:39.750Z,99731.77
2018-12-27T13:46:12.507Z,99731.77
2018-12-27T13:48:44.247Z,99726.95
2018-12-27T13:51:15.752Z,99723.55
2018-12-27T13:53:47.239Z,99726.95
2018-12-27T13:56:18.904Z,99726.95
2018-12-27T13:58:50.302Z,99734.56
2018-12-27T14:01:21.504Z,99736.42
2018-12-27T14:03:52.758Z,99737.17
2018-12-27T14:06:24.531Z,99737.17
2018-12-27T14:08:56.253Z,99738.89
2018-12-27T14:11:27.861Z,99738.89
2018-12-27T14:13:59.442Z,99741.66
2018-12-27T14:16:31.164Z,99743.37
2018-12-27T14:19:02.537Z,99743.37
2018-12-27T14:21:33.997Z,99752.30
2018-12-27T14:24:09.761Z,99752.13
2018-12-27T14:26:40.953Z,99752.13
2018-12-27T14:29:12.409Z,99757.34
2018-12-27T14:31:43.916Z,99753.52
2018-12-27T14:34:16.701Z,99747.31
2018-12-27T14:36:47.933Z,99746.31
2018-12-27T14:39:19.923Z,99749.11
2018-12-27T14:41:51.693Z,99750.72
2018-12-27T14:44:22.963Z,99754.63
2018-12-27T14:46:54.463Z,99754.63
2018-12-27T14:49:25.862Z,99751.95
2018-12-27T14:51:57.250Z,99761.23
2018-12-27T14:54:29.251Z,99758.22
2018-12-27T14:57:00.719Z,99750.63
2018-12-27T14:59:31.936Z,99757.41
2018-12-27T15:02:03.539Z,99760.54
2018-12-27T15:04:35.253Z,99760.54
2018-12-27T15:07:06.791Z,99760.23
2018-12-27T15:09:38.059Z,99770.23
2018-12-27T15:12:09.520Z,99772.05
2018-12-27T15:14:40.687Z,99772.05
2018-12-27T15:17:12.223Z,99767.75
2018-12-27T15:19:43.453Z,99771.53
2018-12-27T15:22:14.620Z,99772.46
2018-12-27T15:24:46.500Z,99769.26
2018-12-27T15:27:18.102Z,99772.64
2018-12-27T15:29:54.010Z,99777.55
2018-12-27T15:32:27.556Z,99777.55
2018-12-27T15:34:59.120Z,99777.31
2018-12-27T15:37:30.691Z,99777.31
2018-12-27T15:40:02.171Z,99773.73
2018-12-27T15:42:33.646Z,99767.64
2018-12-27T15:45:05.257Z,99770.73
2018-12-27T15:47:36.517Z,99770.73
2018-12-27T15:50:08.331Z,99765.61
2018-12-27T15:52:39.897Z,99767.03
2018-12-27T15:55:11.458Z,99771.55
2018-12-27T15:57:43.939Z,99761.50
2018-12-27T16:00:15.508Z,99766.09
2018-12-27T16:02:48.481Z,99766.09
2018-12-27T16:05:19.761Z,99773.05
2018-12-27T16:07:51.250Z,99763.29
2018-12-27T16:10:22.521Z,99763.29
2018-12-27T16:12:53.876Z,99773.13
2018-12-27T16:15:25.223Z,99761.34
2018-12-27T16:17:56.681Z,99769.62
2018-12-27T16:20:28.104Z,99768.97
2018-12-27T16:22:59.294Z,99768.97
2018-12-27T16:25:31.038Z,99767.70
2018-12-27T16:28:02.579Z,99768.77
2018-12-27T16:30:34.118Z,99763.73
2018-12-27T16:33:05.339Z,99761.02
2018-12-27T16:35:36.829Z,99762.42
2018-12-27T16:38:08.764Z,99762.02
2018-12-27T16:40:40.389Z,99769.82
2018-12-27T16:43:11.518Z,99767.22
2018-12-27T16:45:43.107Z,99769.61
2018-12-27T16:48:15.074Z,99769.61
2018-12-27T16:50:46.502Z,99777.08
2018-12-27T16:53:17.756Z,99777.08
2018-12-27T16:55:49.566Z,99768.55
2018-12-27T16:58:21.047Z,99768.55
2018-12-27T17:00:52.337Z,99770.70
2018-12-27T17:03:24.011Z,99770.58
2018-12-27T17:05:56.479Z,99770.00
2018-12-27T17:08:28.022Z,99772.63
2018-12-27T17:10:59.360Z,99774.20
2018-12-27T17:13:30.711Z,99772.31
2018-12-27T17:16:02.189Z,99773.39
2018-12-27T17:18:33.792Z,99773.39
2018-12-27T17:21:05.168Z,99770.67
2018-12-27T17:23:36.458Z,99772.05
2018-12-27T17:26:08.423Z,99771.87
2018-12-27T17:28:40.023Z,99767.30
2018-12-27T17:31:11.415Z,99771.16
2018-12-27T17:33:42.795Z,99769.27
2018-12-27T17:36:14.255Z,99763.25
2018-12-27T17:38:45.563Z,99768.67
2018-12-27T17:41:16.727Z,99768.67
2018-12-27T17:43:48.508Z,99764.26
2018-12-27T17:46:20.335Z,99764.26
2018-12-27T17:48:52.058Z,99764.22
2018-12-27T17:51:23.303Z,99764.22
2018-12-27T17:53:54.564Z,99769.15
2018-12-27T17:56:27.219Z,99769.15
2018-12-27T17:58:58.909Z,99772.59
2018-12-27T18:01:30.647Z,99783.16
2018-12-27T18:04:02.036Z,99783.16
2018-12-27T18:06:33.299Z,99780.64
2018-12-27T18:09:05.986Z,99772.89
2018-12-27T18:11:37.640Z,99772.89
2018-12-27T18:14:09.068Z,99779.52
2018-12-27T18:16:40.524Z,99777.54
2018-12-27T18:19:11.941Z,99776.20
2018-12-27T18:21:43.381Z,99776.20
2018-12-27T18:24:14.744Z,99773.23
2018-12-27T18:26:46.671Z,99772.45
2018-12-27T18:29:18.040Z,99774.67
2018-12-27T18:31:49.216Z,99774.26
2018-12-27T18:34:20.686Z,99767.02
2018-12-27T18:36:51.947Z,99765.45
2018-12-27T18:39:23.294Z,99768.31
2018-12-27T18:41:54.446Z,99770.84
2018-12-27T18:44:25.856Z,99767.29
2018-12-27T18:46:57.417Z,99770.43
2018-12-27T18:49:28.986Z,99770.43
2018-12-27T18:52:00.692Z,99756.52
2018-12-27T18:54:31.994Z,99752.36
2018-12-27T18:57:03.633Z,99750.25
2018-12-27T18:59:34.862Z,99748.30
2018-12-27T19:02:06.431Z,99748.30
2018-12-27T19:04:38.547Z,99740.67
2018-12-27T19:07:09.971Z,99740.67
2018-12-27T19:09:41.504Z,99748.54
2018-12-27T19:12:47.873Z,99748.54
2018-12-27T19:15:22.578Z,99745.59
2018-12-27T19:18:23.315Z,99745.59
2018-12-27T19:20:59.556Z,99746.06
2018-12-27T19:23:31.803Z,99747.13
2018-12-27T19:26:02.946Z,99741.47
2018-12-27T19:28:34.757Z,99745.29
2018-12-27T19:31:06.282Z,99745.29
2018-12-27T19:33:38.513Z,99746.85
2018-12-27T19:36:10.082Z,99739.98
2018-12-27T19:38:41.497Z,99741.56
2018-12-27T19:41:12.939Z,99741.56
2018-12-27T19:43:44.338Z,99736.73
2018-12-27T19:46:17.363Z,99732.72
2018-12-27T19:48:51.448Z,99752.08
2018-12-27T19:51:22.984Z,99748.66
2018-12-27T19:53:54.505Z,99748.66
2018-12-27T19:56:26.339Z,99749.70
2018-12-27T19:58:57.814Z,99754.89
2018-12-27T20:01:29.284Z,99748.91
2018-12-27T20:04:00.490Z,99744.95
2018-12-27T20:06:33.469Z,99744.95
2018-12-27T20:09:06.633Z,99733.58
2018-12-27T20:11:37.961Z,99733.20
2018-12-27T20:14:09.172Z,99743.57
2018-12-27T20:16:41.075Z,99734.49
2018-12-27T20:19:12.326Z,99747.37
2018-12-27T20:21:43.738Z,99745.72
2018-12-27T20:24:14.944Z,99745.72
2018-12-27T20:26:46.175Z,99740.41
2018-12-27T20:29:17.959Z,99741.67
2018-12-27T20:31:49.287Z,99738.16
2018-12-27T20:34:20.346Z,99736.09
2018-12-27T20:36:51.619Z,99736.09
2018-12-27T20:39:22.844Z,99737.52
2018-12-27T20:41:54.476Z,99725.86
2018-12-27T20:44:25.744Z,99734.99
2018-12-27T20:46:56.970Z,99727.91
2018-12-27T20:49:28.520Z,99727.91
2018-12-27T20:52:00.351Z,99731.05
2018-12-27T20:54:31.557Z,99728.09
2018-12-27T20:57:03.174Z,99725.51
2018-12-27T20:59:35.237Z,99725.51
2018-12-27T21:02:06.593Z,99729.48
2018-12-27T21:04:38.511Z,99725.51
2018-12-27T21:07:10.026Z,99725.51
2018-12-27T21:09:41.241Z,99724.36
2018-12-27T21:12:12.573Z,99724.36
2018-12-27T21:14:44.241Z,99723.04
2018-12-27T21:17:15.534Z,99723.04
2018-12-27T21:19:46.873Z,99727.67
2018-12-27T21:22:18.371Z,99727.67
2018-12-27T21:24:50.018Z,99733.33
2018-12-27T21:27:21.634Z,99729.08
2018-12-27T21:29:53.534Z,99728.14
2018-12-27T21:32:25.001Z,99728.14
2018-12-27T21:34:56.817Z,99730.73
2018-12-27T21:37:28.257Z,99733.83
2018-12-27T21:39:59.498Z,99733.83
2018-12-27T21:42:30.941Z,99734.56
2018-12-27T21:45:02.220Z,99734.14
2018-12-27T21:47:34.070Z,99734.14
2018-12-27T21:50:05.709Z,99733.38
2018-12-27T21:52:37.624Z,99730.88
2018-12-27T21:55:08.999Z,99730.88
2018-12-27T21:57:40.243Z,99735.26
2018-12-27T22:00:12.249Z,99734.98
2018-12-27T22:02:43.596Z,99735.75
2018-12-27T22:05:14.904Z,99729.25
2018-12-27T22:07:46.269Z,99729.98
2018-12-27T22:10:17.529Z,99727.56
2018-12-27T22:12:48.764Z,99727.56
2018-12-27T22:15:19.966Z,99713.46
2018-12-27T22:17:51.202Z,99710.02
2018-12-27T22:20:22.255Z,99710.02
2018-12-27T22:22:53.753Z,99710.73
2018-12-27T22:25:24.947Z,99713.02
2018-12-27T22:27:56.213Z,99707.79
2018-12-27T22:30:28.404Z,99700.90
2018-12-27T22:32:59.833Z,99705.25
2018-12-27T22:35:30.987Z,99705.25
2018-12-27T22:38:02.660Z,99711.73
2018-12-27T22:40:34.129Z,99701.06
2018-12-27T22:43:05.429Z,99703.83
2018-12-27T22:45:36.771Z,99703.71
2018-12-27T22:48:08.288Z,99707.88
2018-12-27T22:50:39.605Z,99707.88
2018-12-27T22:53:11.804Z,99706.66
2018-12-27T22:55:55.890Z,99710.90
2018-12-27T22:58:27.096Z,99703.96
2018-12-27T23:00:59.899Z,99703.96
2018-12-27T23:03:31.241Z,99711.78
2018-12-27T23:06:02.566Z,99710.92
2018-12-27T23:08:34.261Z,99704.31
2018-12-27T23:11:06.122Z,99708.77
2018-12-27T23:13:37.564Z,99708.77
2018-12-27T23:16:09.126Z,99704.90
2018-12-27T23:18:40.370Z,99713.08
2018-12-27T23:21:11.540Z,99706.56
2018-12-27T23:23:43.064Z,99706.56
2018-12-27T23:26:14.523Z,99715.90
2018-12-27T23:28:46.023Z,99719.34
2018-12-27T23:31:18.194Z,99719.34
2018-12-27T23:33:49.867Z,99725.02
2018-12-27T23:36:21.401Z,99730.12
2018-12-27T23:38:53.116Z,99730.12
2018-12-27T23:41:24.904Z,99747.31
2018-12-27T23:43:56.422Z,99740.67
2018-12-27T23:46:27.730Z,99741.13
2018-12-27T23:48:58.974Z,99741.38
2018-12-27T23:51:30.510Z,99748.19
2018-12-27T23:54:02.687Z,99748.19
2018-12-27T23:56:34.156Z,99745.73
2018-12-27T23:59:05.358Z,99747.81
